sensor_id;sensor_type;location;lat;lon;timestamp;pressure;altitude;pressure_sealevel;temperature;humidity
41703;BME280;861;48.808;9.006;2023-04-01T00:01:09;95756.00;;;9.07;81.66
41703;BME280;861;48.808;9.006;2023-04-01T00:03:38;95753.59;;;8.82;82.78
41703;BME280;861;48.808;9.006;2023-04-01T00:06:04;95754.31;;;9.20;81.13
41703;BME280;861;48.808;9.006;2023-04-01T00:08:32;95757.75;;;9.20;81.48
41703;BME280;861;48.808;9.006;2023-04-01T00:10:59;95750.88;;;9.43;81.48
41703;BME280;861;48.808;9.006;2023-04-01T00:13:26;95751.41;;;9.34;80.42
41703;BME280;861;48.808;9.006;2023-04-01T00:15:54;95749.03;;;9.36;80.72
41703;BME280;861;48.808;9.006;2023-04-01T00:18:22;95757.38;;;9.49;80.58
41703;BME280;861;48.808;9.006;2023-04-01T00:20:53;95767.06;;;9.23;81.41
41703;BME280;861;48.808;9.006;2023-04-01T00:23:21;95751.25;;;9.14;81.83
41703;BME280;861;48.808;9.006;2023-04-01T00:25:49;95747.84;;;9.37;80.46
41703;BME280;861;48.808;9.006;2023-04-01T00:28:19;95738.91;;;9.10;81.46
41703;BME280;861;48.808;9.006;2023-04-01T00:30:47;95746.22;;;9.13;81.26
41703;BME280;861;48.808;9.006;2023-04-01T00:33:14;95749.78;;;9.06;81.47
41703;BME280;861;48.808;9.006;2023-04-01T00:35:41;95749.59;;;9.51;80.24
41703;BME280;861;48.808;9.006;2023-04-01T00:38:08;95755.38;;;9.26;80.26
41703;BME280;861;48.808;9.006;2023-04-01T00:40:42;95760.53;;;9.17;80.85
41703;BME280;861;48.808;9.006;2023-04-01T00:43:18;95771.41;;;9.17;81.12
41703;BME280;861;48.808;9.006;2023-04-01T00:45:49;95760.06;;;9.22;81.54
41703;BME280;861;48.808;9.006;2023-04-01T00:48:25;95759.66;;;9.23;82.67
41703;BME280;861;48.808;9.006;2023-04-01T00:51:05;95764.59;;;9.32;81.98
41703;BME280;861;48.808;9.006;2023-04-01T00:53:43;95762.13;;;9.45;81.07
41703;BME280;861;48.808;9.006;2023-04-01T00:56:24;95754.38;;;9.13;82.06
41703;BME280;861;48.808;9.006;2023-04-01T00:59:10;95762.38;;;9.23;82.50
41703;BME280;861;48.808;9.006;2023-04-01T01:01:41;95773.84;;;9.04;83.97
41703;BME280;861;48.808;9.006;2023-04-01T01:04:22;95762.38;;;8.93;85.06
41703;BME280;861;48.808;9.006;2023-04-01T01:07:15;95759.72;;;9.20;84.26
41703;BME280;861;48.808;9.006;2023-04-01T01:16:24;95749.13;;;8.99;84.95
41703;BME280;861;48.808;9.006;2023-04-01T01:25:47;95756.63;;;8.88;85.48
41703;BME280;861;48.808;9.006;2023-04-01T01:32:30;95759.97;;;8.99;86.08
41703;BME280;861;48.808;9.006;2023-04-01T01:35:46;95761.50;;;9.00;85.04
41703;BME280;861;48.808;9.006;2023-04-01T01:38:26;95771.44;;;9.13;85.67
41703;BME280;861;48.808;9.006;2023-04-01T01:40:59;95759.50;;;9.07;86.01
41703;BME280;861;48.808;9.006;2023-04-01T01:43:40;95768.13;;;8.99;87.09
41703;BME280;861;48.808;9.006;2023-04-01T01:46:17;95777.28;;;8.75;88.26
41703;BME280;861;48.808;9.006;2023-04-01T01:48:50;95758.69;;;9.10;86.84
41703;BME280;861;48.808;9.006;2023-04-01T01:51:22;95762.47;;;9.16;87.04
41703;BME280;861;48.808;9.006;2023-04-01T01:53:49;95758.13;;;8.89;86.81
41703;BME280;861;48.808;9.006;2023-04-01T01:56:22;95747.09;;;8.73;88.46
41703;BME280;861;48.808;9.006;2023-04-01T01:59:00;95750.78;;;8.89;86.26
41703;BME280;861;48.808;9.006;2023-04-01T02:01:38;95748.16;;;8.82;87.53
41703;BME280;861;48.808;9.006;2023-04-01T02:04:13;95741.94;;;8.82;87.33
41703;BME280;861;48.808;9.006;2023-04-01T02:07:01;95747.28;;;8.89;87.45
41703;BME280;861;48.808;9.006;2023-04-01T02:09:30;95756.41;;;8.72;87.82
41703;BME280;861;48.808;9.006;2023-04-01T02:12:04;95752.78;;;8.85;88.86
41703;BME280;861;48.808;9.006;2023-04-01T02:14:53;95763.78;;;8.71;89.74
41703;BME280;861;48.808;9.006;2023-04-01T02:17:33;95755.00;;;8.60;91.22
41703;BME280;861;48.808;9.006;2023-04-01T02:20:16;95744.84;;;8.64;89.97
41703;BME280;861;48.808;9.006;2023-04-01T02:22:54;95756.09;;;8.66;89.82
41703;BME280;861;48.808;9.006;2023-04-01T02:25:35;95747.59;;;8.61;90.22
41703;BME280;861;48.808;9.006;2023-04-01T02:28:08;95741.13;;;8.51;89.05
41703;BME280;861;48.808;9.006;2023-04-01T02:30:42;95742.16;;;8.64;87.74
41703;BME280;861;48.808;9.006;2023-04-01T02:33:11;95749.72;;;8.80;86.49
41703;BME280;861;48.808;9.006;2023-04-01T02:35:38;95745.16;;;8.70;86.20
41703;BME280;861;48.808;9.006;2023-04-01T02:38:06;95747.03;;;8.76;86.78
41703;BME280;861;48.808;9.006;2023-04-01T02:40:58;95746.28;;;8.76;84.93
41703;BME280;861;48.808;9.006;2023-04-01T02:43:27;95749.72;;;8.80;84.99
41703;BME280;861;48.808;9.006;2023-04-01T02:45:54;95745.78;;;8.84;85.26
41703;BME280;861;48.808;9.006;2023-04-01T02:48:20;95755.91;;;8.84;83.54
41703;BME280;861;48.808;9.006;2023-04-01T02:50:47;95744.66;;;8.82;83.71
41703;BME280;861;48.808;9.006;2023-04-01T02:53:13;95748.03;;;8.93;82.77
41703;BME280;861;48.808;9.006;2023-04-01T02:55:40;95741.81;;;8.59;83.68
41703;BME280;861;48.808;9.006;2023-04-01T02:58:07;95755.91;;;8.43;84.11
41703;BME280;861;48.808;9.006;2023-04-01T03:00:34;95751.97;;;8.51;84.17
41703;BME280;861;48.808;9.006;2023-04-01T03:03:00;95752.47;;;8.76;80.59
41703;BME280;861;48.808;9.006;2023-04-01T03:05:29;95748.06;;;8.89;82.06
41703;BME280;861;48.808;9.006;2023-04-01T03:07:55;95748.91;;;8.83;82.36
41703;BME280;861;48.808;9.006;2023-04-01T03:10:22;95751.16;;;8.91;81.56
41703;BME280;861;48.808;9.006;2023-04-01T03:12:49;95749.56;;;8.94;80.66
41703;BME280;861;48.808;9.006;2023-04-01T03:15:15;95752.88;;;8.75;82.67
41703;BME280;861;48.808;9.006;2023-04-01T03:17:43;95741.81;;;8.92;81.75
41703;BME280;861;48.808;9.006;2023-04-01T03:20:11;95746.81;;;8.97;80.92
41703;BME280;861;48.808;9.006;2023-04-01T03:22:39;95753.53;;;8.86;80.60
41703;BME280;861;48.808;9.006;2023-04-01T03:25:07;95752.06;;;8.78;81.70
41703;BME280;861;48.808;9.006;2023-04-01T03:27:34;95759.13;;;8.72;81.38
41703;BME280;861;48.808;9.006;2023-04-01T03:30:04;95756.63;;;8.88;80.59
41703;BME280;861;48.808;9.006;2023-04-01T03:32:32;95748.69;;;9.04;80.41
41703;BME280;861;48.808;9.006;2023-04-01T03:34:59;95742.81;;;8.75;81.65
41703;BME280;861;48.808;9.006;2023-04-01T03:37:26;95745.63;;;8.65;82.28
41703;BME280;861;48.808;9.006;2023-04-01T03:39:52;95741.28;;;8.74;81.61
41703;BME280;861;48.808;9.006;2023-04-01T03:42:19;95745.13;;;8.73;81.17
41703;BME280;861;48.808;9.006;2023-04-01T03:44:45;95737.38;;;8.75;81.59
41703;BME280;861;48.808;9.006;2023-04-01T03:47:12;95738.81;;;8.50;82.37
41703;BME280;861;48.808;9.006;2023-04-01T03:49:39;95735.44;;;8.39;82.96
41703;BME280;861;48.808;9.006;2023-04-01T03:52:10;95728.34;;;8.52;82.15
41703;BME280;861;48.808;9.006;2023-04-01T03:54:37;95739.97;;;8.52;81.87
41703;BME280;861;48.808;9.006;2023-04-01T03:57:04;95735.56;;;8.25;81.78
41703;BME280;861;48.808;9.006;2023-04-01T03:59:31;95739.28;;;8.41;81.23
41703;BME280;861;48.808;9.006;2023-04-01T04:01:58;95731.91;;;8.42;81.34
41703;BME280;861;48.808;9.006;2023-04-01T04:04:24;95730.47;;;8.67;80.33
41703;BME280;861;48.808;9.006;2023-04-01T04:06:52;95731.00;;;8.55;80.64
41703;BME280;861;48.808;9.006;2023-04-01T04:09:19;95718.84;;;8.67;81.47
41703;BME280;861;48.808;9.006;2023-04-01T04:11:47;95719.78;;;8.53;80.91
41703;BME280;861;48.808;9.006;2023-04-01T04:14:14;95734.31;;;8.36;81.69
41703;BME280;861;48.808;9.006;2023-04-01T04:16:41;95729.63;;;8.37;81.64
41703;BME280;861;48.808;9.006;2023-04-01T04:19:07;95719.00;;;8.53;81.62
41703;BME280;861;48.808;9.006;2023-04-01T04:21:34;95723.63;;;8.56;81.47
41703;BME280;861;48.808;9.006;2023-04-01T04:24:02;95723.28;;;8.54;81.86
41703;BME280;861;48.808;9.006;2023-04-01T04:26:28;95730.41;;;8.37;82.56
41703;BME280;861;48.808;9.006;2023-04-01T04:28:56;95727.56;;;8.51;81.42
41703;BME280;861;48.808;9.006;2023-04-01T04:31:25;95736.06;;;8.53;80.87
41703;BME280;861;48.808;9.006;2023-04-01T04:33:53;95730.81;;;8.36;82.64
41703;BME280;861;48.808;9.006;2023-04-01T04:36:21;95718.09;;;8.29;83.59
41703;BME280;861;48.808;9.006;2023-04-01T04:38:48;95728.91;;;8.33;82.34
41703;BME280;861;48.808;9.006;2023-04-01T04:41:18;95710.59;;;8.44;82.30
41703;BME280;861;48.808;9.006;2023-04-01T04:43:56;95713.84;;;8.28;82.40
41703;BME280;861;48.808;9.006;2023-04-01T04:46:25;95706.41;;;8.36;81.89
41703;BME280;861;48.808;9.006;2023-04-01T04:48:51;95703.13;;;8.51;81.54
41703;BME280;861;48.808;9.006;2023-04-01T04:51:20;95707.47;;;8.45;81.59
41703;BME280;861;48.808;9.006;2023-04-01T04:53:48;95700.47;;;8.48;81.36
41703;BME280;861;48.808;9.006;2023-04-01T04:56:21;95697.84;;;8.41;81.90
41703;BME280;861;48.808;9.006;2023-04-01T04:58:49;95693.09;;;8.48;82.31
41703;BME280;861;48.808;9.006;2023-04-01T05:01:17;95715.28;;;8.40;81.89
41703;BME280;861;48.808;9.006;2023-04-01T05:03:45;95703.44;;;8.20;82.97
41703;BME280;861;48.808;9.006;2023-04-01T05:06:16;95703.63;;;8.43;82.40
41703;BME280;861;48.808;9.006;2023-04-01T05:08:45;95709.94;;;8.33;82.36
41703;BME280;861;48.808;9.006;2023-04-01T05:11:16;95708.06;;;8.26;82.67
41703;BME280;861;48.808;9.006;2023-04-01T05:13:45;95703.63;;;8.43;82.26
41703;BME280;861;48.808;9.006;2023-04-01T05:16:18;95704.19;;;8.27;83.16
41703;BME280;861;48.808;9.006;2023-04-01T05:18:46;95712.63;;;8.33;82.41
41703;BME280;861;48.808;9.006;2023-04-01T05:21:15;95705.88;;;8.48;82.41
41703;BME280;861;48.808;9.006;2023-04-01T05:23:43;95711.00;;;8.42;83.47
41703;BME280;861;48.808;9.006;2023-04-01T05:26:14;95705.19;;;8.77;80.93
41703;BME280;861;48.808;9.006;2023-04-01T05:28:41;95709.63;;;8.61;81.32
41703;BME280;861;48.808;9.006;2023-04-01T05:31:09;95706.34;;;8.43;83.75
41703;BME280;861;48.808;9.006;2023-04-01T05:33:36;95710.97;;;8.46;81.86
41703;BME280;861;48.808;9.006;2023-04-01T05:36:13;95691.38;;;8.65;80.61
41703;BME280;861;48.808;9.006;2023-04-01T05:38:41;95690.13;;;8.73;80.25
41703;BME280;861;48.808;9.006;2023-04-01T05:41:09;95689.47;;;8.62;81.13
41703;BME280;861;48.808;9.006;2023-04-01T05:43:38;95682.75;;;8.70;80.39
41703;BME280;861;48.808;9.006;2023-04-01T05:46:06;95695.19;;;8.71;79.87
41703;BME280;861;48.808;9.006;2023-04-01T05:48:34;95686.09;;;8.84;79.92
41703;BME280;861;48.808;9.006;2023-04-01T05:51:02;95688.03;;;8.84;78.46
41703;BME280;861;48.808;9.006;2023-04-01T05:53:30;95690.66;;;8.91;78.69
41703;BME280;861;48.808;9.006;2023-04-01T05:55:57;95695.81;;;8.82;79.50
41703;BME280;861;48.808;9.006;2023-04-01T05:58:27;95690.88;;;9.03;78.20
41703;BME280;861;48.808;9.006;2023-04-01T06:01:08;95683.69;;;8.90;78.99
41703;BME280;861;48.808;9.006;2023-04-01T06:03:37;95678.34;;;9.13;77.04
41703;BME280;861;48.808;9.006;2023-04-01T06:06:04;95679.53;;;9.12;76.91
41703;BME280;861;48.808;9.006;2023-04-01T06:08:39;95681.28;;;9.25;76.66
41703;BME280;861;48.808;9.006;2023-04-01T06:17:32;95683.50;;;9.34;77.42
41703;BME280;861;48.808;9.006;2023-04-01T06:20:33;95689.25;;;9.09;76.54
41703;BME280;861;48.808;9.006;2023-04-01T06:35:58;95697.75;;;9.11;79.02
41703;BME280;861;48.808;9.006;2023-04-01T06:49:07;95688.59;;;9.28;79.75
41703;BME280;861;48.808;9.006;2023-04-01T07:00:48;95692.84;;;8.73;84.42
41703;BME280;861;48.808;9.006;2023-04-01T07:03:31;95688.53;;;8.75;82.88
41703;BME280;861;48.808;9.006;2023-04-01T07:06:06;95691.22;;;9.09;81.89
41703;BME280;861;48.808;9.006;2023-04-01T07:08:43;95687.81;;;8.71;83.32
41703;BME280;861;48.808;9.006;2023-04-01T07:11:28;95703.34;;;8.67;82.73
41703;BME280;861;48.808;9.006;2023-04-01T07:14:25;95688.91;;;8.77;83.34
41703;BME280;861;48.808;9.006;2023-04-01T07:20:35;95720.84;;;8.96;82.59
41703;BME280;861;48.808;9.006;2023-04-01T07:23:16;95705.81;;;8.88;82.08
41703;BME280;861;48.808;9.006;2023-04-01T07:26:00;95703.84;;;8.89;81.78
41703;BME280;861;48.808;9.006;2023-04-01T07:28:37;95711.56;;;8.94;82.14
41703;BME280;861;48.808;9.006;2023-04-01T07:31:29;95713.16;;;8.91;82.83
41703;BME280;861;48.808;9.006;2023-04-01T07:34:26;95704.88;;;9.02;82.13
41703;BME280;861;48.808;9.006;2023-04-01T07:40:50;95699.00;;;9.07;82.56
41703;BME280;861;48.808;9.006;2023-04-01T07:50:04;95709.06;;;9.06;83.65
41703;BME280;861;48.808;9.006;2023-04-01T07:56:08;95707.50;;;9.09;82.69
41703;BME280;861;48.808;9.006;2023-04-01T07:59:11;95718.22;;;9.19;83.60
41703;BME280;861;48.808;9.006;2023-04-01T08:05:57;95726.03;;;9.44;82.76
41703;BME280;861;48.808;9.006;2023-04-01T08:20:48;95720.47;;;9.24;84.03
41703;BME280;861;48.808;9.006;2023-04-01T08:23:41;95725.81;;;9.31;83.38
41703;BME280;861;48.808;9.006;2023-04-01T08:26:39;95736.00;;;9.24;85.75
41703;BME280;861;48.808;9.006;2023-04-01T08:29:34;95725.69;;;9.12;85.36
41703;BME280;861;48.808;9.006;2023-04-01T08:32:20;95731.56;;;9.07;86.91
41703;BME280;861;48.808;9.006;2023-04-01T08:35:24;95752.03;;;9.15;84.33
41703;BME280;861;48.808;9.006;2023-04-01T08:41:01;95748.81;;;8.93;87.68
41703;BME280;861;48.808;9.006;2023-04-01T08:44:22;95726.75;;;8.88;87.23
41703;BME280;861;48.808;9.006;2023-04-01T08:47:28;95727.78;;;8.67;88.51
41703;BME280;861;48.808;9.006;2023-04-01T08:56:18;95729.41;;;8.95;87.86
41703;BME280;861;48.808;9.006;2023-04-01T09:03:38;95725.50;;;8.96;87.19
41703;BME280;861;48.808;9.006;2023-04-01T09:06:47;95740.84;;;9.09;87.67
41703;BME280;861;48.808;9.006;2023-04-01T09:15:59;95718.81;;;9.84;85.06
41703;BME280;861;48.808;9.006;2023-04-01T09:22:09;95726.13;;;10.13;83.71
41703;BME280;861;48.808;9.006;2023-04-01T09:28:37;95739.81;;;9.83;82.22
41703;BME280;861;48.808;9.006;2023-04-01T09:31:23;95745.44;;;9.69;83.81
41703;BME280;861;48.808;9.006;2023-04-01T09:37:53;95747.34;;;9.99;79.49
41703;BME280;861;48.808;9.006;2023-04-01T09:41:07;95738.25;;;9.59;80.99
41703;BME280;861;48.808;9.006;2023-04-01T09:44:35;95751.63;;;9.73;79.14
41703;BME280;861;48.808;9.006;2023-04-01T09:50:59;95758.53;;;9.78;79.21
41703;BME280;861;48.808;9.006;2023-04-01T09:54:19;95759.84;;;9.66;77.78
41703;BME280;861;48.808;9.006;2023-04-01T10:10:35;95778.75;;;9.77;78.07
41703;BME280;861;48.808;9.006;2023-04-01T10:16:15;95771.50;;;10.20;78.10
41703;BME280;861;48.808;9.006;2023-04-01T10:19:44;95781.22;;;10.21;77.06
41703;BME280;861;48.808;9.006;2023-04-01T10:22:58;95761.59;;;10.06;77.61
41703;BME280;861;48.808;9.006;2023-04-01T10:29:30;95770.38;;;10.17;76.05
41703;BME280;861;48.808;9.006;2023-04-01T10:32:33;95759.66;;;10.07;75.88
41703;BME280;861;48.808;9.006;2023-04-01T10:39:34;95771.16;;;10.41;75.94
41703;BME280;861;48.808;9.006;2023-04-01T10:52:46;95769.84;;;9.99;76.99
41703;BME280;861;48.808;9.006;2023-04-01T10:56:36;95767.78;;;10.33;75.80
41703;BME280;861;48.808;9.006;2023-04-01T10:59:36;95769.19;;;10.18;75.13
41703;BME280;861;48.808;9.006;2023-04-01T11:23:05;95772.00;;;11.20;72.43
41703;BME280;861;48.808;9.006;2023-04-01T11:26:15;95768.22;;;11.33;71.76
41703;BME280;861;48.808;9.006;2023-04-01T11:32:12;95781.34;;;11.38;71.11
41703;BME280;861;48.808;9.006;2023-04-01T11:41:58;95793.25;;;11.28;70.94
41703;BME280;861;48.808;9.006;2023-04-01T11:44:58;95793.50;;;11.14;73.09
41703;BME280;861;48.808;9.006;2023-04-01T12:07:21;95823.38;;;10.78;71.76
41703;BME280;861;48.808;9.006;2023-04-01T12:16:47;95802.53;;;10.68;73.24
41703;BME280;861;48.808;9.006;2023-04-01T12:26:06;95833.00;;;11.06;70.15
41703;BME280;861;48.808;9.006;2023-04-01T12:29:43;95814.97;;;11.12;70.23
41703;BME280;861;48.808;9.006;2023-04-01T12:32:53;95823.28;;;11.05;71.63
41703;BME280;861;48.808;9.006;2023-04-01T12:46:37;95818.09;;;10.91;73.12
41703;BME280;861;48.808;9.006;2023-04-01T12:55:45;95829.66;;;10.75;73.10
41703;BME280;861;48.808;9.006;2023-04-01T12:58:41;95831.47;;;10.82;72.92
41703;BME280;861;48.808;9.006;2023-04-01T13:02:08;95827.06;;;10.45;73.55
41703;BME280;861;48.808;9.006;2023-04-01T13:17:31;95851.91;;;10.70;76.05
41703;BME280;861;48.808;9.006;2023-04-01T13:26:11;95842.53;;;10.95;73.70
41703;BME280;861;48.808;9.006;2023-04-01T13:29:05;95853.91;;;10.90;74.43
41703;BME280;861;48.808;9.006;2023-04-01T13:32:12;95855.38;;;10.94;73.10
41703;BME280;861;48.808;9.006;2023-04-01T13:45:08;95874.56;;;11.10;73.15
41703;BME280;861;48.808;9.006;2023-04-01T13:51:13;95869.63;;;11.02;72.17
41703;BME280;861;48.808;9.006;2023-04-01T13:57:21;95873.38;;;10.88;73.96
41703;BME280;861;48.808;9.006;2023-04-01T14:09:52;95889.19;;;10.73;74.49
41703;BME280;861;48.808;9.006;2023-04-01T14:15:57;95882.03;;;10.60;75.30
41703;BME280;861;48.808;9.006;2023-04-01T14:25:38;95882.31;;;10.65;75.26
41703;BME280;861;48.808;9.006;2023-04-01T14:32:45;95886.09;;;10.71;74.13
41703;BME280;861;48.808;9.006;2023-04-01T14:35:41;95884.09;;;10.75;74.27
41703;BME280;861;48.808;9.006;2023-04-01T14:41:48;95886.69;;;10.82;74.04
41703;BME280;861;48.808;9.006;2023-04-01T14:47:59;95890.84;;;10.91;73.69
41703;BME280;861;48.808;9.006;2023-04-01T14:50:57;95881.03;;;10.97;74.49
41703;BME280;861;48.808;9.006;2023-04-01T14:54:15;95892.22;;;10.79;77.39
41703;BME280;861;48.808;9.006;2023-04-01T14:57:13;95889.63;;;11.15;73.58
41703;BME280;861;48.808;9.006;2023-04-01T15:31:23;95918.31;;;10.76;76.16
41703;BME280;861;48.808;9.006;2023-04-01T15:40:06;95917.72;;;10.89;75.26
41703;BME280;861;48.808;9.006;2023-04-01T15:43:20;95913.44;;;10.88;74.44
41703;BME280;861;48.808;9.006;2023-04-01T15:49:33;95935.47;;;10.73;75.37
41703;BME280;861;48.808;9.006;2023-04-01T15:59:21;95933.47;;;10.77;73.61
41703;BME280;861;48.808;9.006;2023-04-01T16:02:43;95937.94;;;10.64;74.84
41703;BME280;861;48.808;9.006;2023-04-01T16:15:57;95932.81;;;10.43;72.92
41703;BME280;861;48.808;9.006;2023-04-01T16:18:58;95926.47;;;10.76;72.83
41703;BME280;861;48.808;9.006;2023-04-01T16:33:50;95946.97;;;10.84;72.46
41703;BME280;861;48.808;9.006;2023-04-01T16:36:41;95955.47;;;10.63;72.99
41703;BME280;861;48.808;9.006;2023-04-01T16:42:16;95961.53;;;10.74;72.82
41703;BME280;861;48.808;9.006;2023-04-01T16:47:51;95958.13;;;10.67;73.86
41703;BME280;861;48.808;9.006;2023-04-01T16:50:56;95963.56;;;10.40;74.94
41703;BME280;861;48.808;9.006;2023-04-01T16:56:47;95959.97;;;10.73;74.58
41703;BME280;861;48.808;9.006;2023-04-01T17:12:32;95959.41;;;10.86;75.31
41703;BME280;861;48.808;9.006;2023-04-01T17:16:01;95973.63;;;10.43;75.04
41703;BME280;861;48.808;9.006;2023-04-01T17:22:41;95976.53;;;10.82;74.69
41703;BME280;861;48.808;9.006;2023-04-01T17:31:45;95999.44;;;10.89;74.35
41703;BME280;861;48.808;9.006;2023-04-01T17:34:37;95998.31;;;10.82;74.92
41703;BME280;861;48.808;9.006;2023-04-01T17:37:45;96007.22;;;10.87;74.17
41703;BME280;861;48.808;9.006;2023-04-01T17:41:00;96025.88;;;10.88;75.77
41703;BME280;861;48.808;9.006;2023-04-01T17:43:55;96028.66;;;10.84;76.27
41703;BME280;861;48.808;9.006;2023-04-01T17:50:28;96050.56;;;10.47;79.59
41703;BME280;861;48.808;9.006;2023-04-01T17:53:53;96063.34;;;10.50;80.15
41703;BME280;861;48.808;9.006;2023-04-01T18:02:54;96051.47;;;10.00;83.15
41703;BME280;861;48.808;9.006;2023-04-01T18:06:41;96050.00;;;9.92;85.00
41703;BME280;861;48.808;9.006;2023-04-01T18:18:56;96048.25;;;9.75;84.69
41703;BME280;861;48.808;9.006;2023-04-01T18:21:50;96055.81;;;9.54;86.12
41703;BME280;861;48.808;9.006;2023-04-01T18:24:32;96058.75;;;9.73;84.17
41703;BME280;861;48.808;9.006;2023-04-01T18:27:24;96062.41;;;9.56;83.23
41703;BME280;861;48.808;9.006;2023-04-01T18:33:04;96059.03;;;9.42;81.88
41703;BME280;861;48.808;9.006;2023-04-01T18:36:26;96064.81;;;9.47;81.42
41703;BME280;861;48.808;9.006;2023-04-01T18:39:19;96066.88;;;9.32;83.10
41703;BME280;861;48.808;9.006;2023-04-01T18:46:01;96084.38;;;9.28;80.57
41703;BME280;861;48.808;9.006;2023-04-01T18:49:29;96095.78;;;9.05;81.66
41703;BME280;861;48.808;9.006;2023-04-01T18:52:34;96095.88;;;8.95;82.26
41703;BME280;861;48.808;9.006;2023-04-01T18:57:53;96104.78;;;8.92;81.77
41703;BME280;861;48.808;9.006;2023-04-01T19:06:56;96120.13;;;9.23;80.45
41703;BME280;861;48.808;9.006;2023-04-01T19:09:45;96114.16;;;8.84;81.71
41703;BME280;861;48.808;9.006;2023-04-01T19:12:40;96116.72;;;9.05;81.04
41703;BME280;861;48.808;9.006;2023-04-01T19:19:16;96100.75;;;9.17;81.11
41703;BME280;861;48.808;9.006;2023-04-01T19:23:06;96103.53;;;9.10;80.85
41703;BME280;861;48.808;9.006;2023-04-01T19:26:09;96100.22;;;8.78;82.48
41703;BME280;861;48.808;9.006;2023-04-01T19:29:10;96105.31;;;8.73;82.78
41703;BME280;861;48.808;9.006;2023-04-01T19:32:14;96104.19;;;8.56;83.41
41703;BME280;861;48.808;9.006;2023-04-01T19:35:33;96111.94;;;8.61;83.47
41703;BME280;861;48.808;9.006;2023-04-01T19:38:31;96122.06;;;8.47;84.68
41703;BME280;861;48.808;9.006;2023-04-01T19:41:31;96109.94;;;8.72;83.19
41703;BME280;861;48.808;9.006;2023-04-01T19:57:19;96128.28;;;8.51;84.47
41703;BME280;861;48.808;9.006;2023-04-01T20:06:10;96131.31;;;8.60;84.96
41703;BME280;861;48.808;9.006;2023-04-01T20:09:25;96132.03;;;8.74;84.19
41703;BME280;861;48.808;9.006;2023-04-01T20:12:58;96138.25;;;8.71;83.80
41703;BME280;861;48.808;9.006;2023-04-01T20:15:59;96150.28;;;8.67;84.17
41703;BME280;861;48.808;9.006;2023-04-01T20:21:34;96154.97;;;8.59;84.82
41703;BME280;861;48.808;9.006;2023-04-01T20:24:46;96158.00;;;8.72;84.47
41703;BME280;861;48.808;9.006;2023-04-01T20:33:37;96160.72;;;8.68;84.47
41703;BME280;861;48.808;9.006;2023-04-01T20:36:58;96174.72;;;8.60;84.55
41703;BME280;861;48.808;9.006;2023-04-01T20:43:43;96178.59;;;8.66;84.99
41703;BME280;861;48.808;9.006;2023-04-01T20:47:06;96180.91;;;8.64;84.07
41703;BME280;861;48.808;9.006;2023-04-01T20:49:53;96175.88;;;8.62;84.47
41703;BME280;861;48.808;9.006;2023-04-01T20:53:15;96182.47;;;8.61;84.87
41703;BME280;861;48.808;9.006;2023-04-01T20:59:17;96178.53;;;8.80;84.16
41703;BME280;861;48.808;9.006;2023-04-01T21:12:13;96189.84;;;8.61;85.04
41703;BME280;861;48.808;9.006;2023-04-01T21:21:17;96192.88;;;8.77;84.93
41703;BME280;861;48.808;9.006;2023-04-01T21:31:36;96205.38;;;8.46;86.18
41703;BME280;861;48.808;9.006;2023-04-01T21:57:31;96240.56;;;8.81;85.18
41703;BME280;861;48.808;9.006;2023-04-01T22:00:27;96242.91;;;8.69;85.21
41703;BME280;861;48.808;9.006;2023-04-01T22:03:41;96242.97;;;8.58;85.19
41703;BME280;861;48.808;9.006;2023-04-01T22:09:56;96242.56;;;8.60;85.19
41703;BME280;861;48.808;9.006;2023-04-01T22:12:44;96238.72;;;8.50;85.64
41703;BME280;861;48.808;9.006;2023-04-01T22:18:33;96244.88;;;8.58;84.38
41703;BME280;861;48.808;9.006;2023-04-01T22:21:24;96238.63;;;8.82;83.40
41703;BME280;861;48.808;9.006;2023-04-01T22:24:16;96237.06;;;8.81;82.24
41703;BME280;861;48.808;9.006;2023-04-01T22:30:04;96238.28;;;8.69;83.24
41703;BME280;861;48.808;9.006;2023-04-01T22:33:05;96245.69;;;8.51;84.61
41703;BME280;861;48.808;9.006;2023-04-01T22:36:00;96247.63;;;8.47;84.16
41703;BME280;861;48.808;9.006;2023-04-01T22:42:44;96259.63;;;8.50;83.58
41703;BME280;861;48.808;9.006;2023-04-01T22:48:15;96257.66;;;8.57;82.65
41703;BME280;861;48.808;9.006;2023-04-01T22:51:18;96261.53;;;8.77;81.79
41703;BME280;861;48.808;9.006;2023-04-01T22:53:54;96251.13;;;8.34;83.83
41703;BME280;861;48.808;9.006;2023-04-01T22:57:08;96255.00;;;8.26;84.38
41703;BME280;861;48.808;9.006;2023-04-01T23:00:03;96263.88;;;8.58;82.68
41703;BME280;861;48.808;9.006;2023-04-01T23:02:46;96258.00;;;8.84;82.13
41703;BME280;861;48.808;9.006;2023-04-01T23:05:31;96257.34;;;8.41;83.66
41703;BME280;861;48.808;9.006;2023-04-01T23:11:35;96262.38;;;8.36;84.09
41703;BME280;861;48.808;9.006;2023-04-01T23:14:28;96272.06;;;8.47;83.43
41703;BME280;861;48.808;9.006;2023-04-01T23:17:18;96265.88;;;8.36;83.43
41703;BME280;861;48.808;9.006;2023-04-01T23:26:39;96272.06;;;8.23;83.98
41703;BME280;861;48.808;9.006;2023-04-01T23:29:17;96278.63;;;8.08;84.42
41703;BME280;861;48.808;9.006;2023-04-01T23:31:48;96283.66;;;8.13;84.26
41703;BME280;861;48.808;9.006;2023-04-01T23:34:36;96282.88;;;8.16;84.36
41703;BME280;861;48.808;9.006;2023-04-01T23:37:10;96281.75;;;8.31;84.35
41703;BME280;861;48.808;9.006;2023-04-01T23:39:45;96291.41;;;8.00;84.62
41703;BME280;861;48.808;9.006;2023-04-01T23:42:30;96294.88;;;7.87;85.81
41703;BME280;861;48.808;9.006;2023-04-01T23:45:11;96299.19;;;8.23;83.96
41703;BME280;861;48.808;9.006;2023-04-01T23:47:46;96287.91;;;8.14;84.24
41703;BME280;861;48.808;9.006;2023-04-01T23:50:24;96291.44;;;8.28;83.80
41703;BME280;861;48.808;9.006;2023-04-01T23:53:03;96298.00;;;8.31;83.38
41703;BME280;861;48.808;9.006;2023-04-01T23:55:42;96301.88;;;8.19;84.35
41703;BME280;861;48.808;9.006;2023-04-01T23:58:13;96289.88;;;8.34;83.52
